Time;durP1;ratioP1;P1;durP2;ratioP2;P2;SDS_P1;SDS_P2;PMS_P1;PMS_P2;Temp;Humidity;BMP_temperature;BMP_pressure;BME280_temperature;BME280_humidity;BME280_pressure;Samples;Min_cycle;Max_cycle;Signal;HPM_P1;HPM_P2
2023/06/22 00:01:22;;;;;;;27.83;14.15;;;18.60;99.90;;;;;;5115341;27;20080;-64
2023/06/22 00:03:49;;;;;;;26.50;13.48;;;18.60;99.90;;;;;;5116292;27;20133;-64
2023/06/22 00:06:16;;;;;;;28.10;13.40;;;18.60;99.90;;;;;;5114990;27;20088;-64
2023/06/22 00:08:43;;;;;;;28.25;14.77;;;18.60;99.90;;;;;;5097776;27;20071;-64
2023/06/22 00:11:10;;;;;;;31.52;13.82;;;18.60;99.90;;;;;;5114014;27;20031;-64
2023/06/22 00:13:37;;;;;;;29.25;14.07;;;18.60;99.90;;;;;;5115615;27;20035;-64
2023/06/22 00:16:04;;;;;;;21.52;12.60;;;18.60;99.90;;;;;;5114772;27;20031;-64
2023/06/22 00:18:31;;;;;;;30.10;14.02;;;18.70;99.90;;;;;;5121557;27;20040;-64
2023/06/22 00:20:59;;;;;;;32.95;14.48;;;18.70;99.90;;;;;;5111255;28;20135;-64
2023/06/22 00:23:26;;;;;;;29.23;15.25;;;18.80;99.90;;;;;;5108833;27;20047;-63
2023/06/22 00:25:53;;;;;;;23.42;14.50;;;18.80;99.90;;;;;;5132260;27;20050;-63
2023/06/22 00:28:20;;;;;;;28.42;14.02;;;18.80;99.90;;;;;;5128388;27;20047;-64
2023/06/22 00:30:48;;;;;;;30.13;15.23;;;18.80;99.90;;;;;;5112855;27;20130;-64
2023/06/22 00:33:15;;;;;;;33.38;13.90;;;18.80;99.90;;;;;;5113907;27;20039;-64
2023/06/22 00:35:43;;;;;;;28.27;14.23;;;18.70;99.90;;;;;;5130233;27;20599;-64
2023/06/22 00:38:10;;;;;;;29.27;14.63;;;18.70;99.90;;;;;;5127908;27;20495;-64
2023/06/22 00:40:37;;;;;;;27.38;14.73;;;18.70;99.90;;;;;;5131966;27;20445;-64
2023/06/22 00:43:05;;;;;;;25.02;14.40;;;18.70;99.90;;;;;;5108283;28;20108;-64
2023/06/22 00:45:32;;;;;;;26.13;14.15;;;18.60;99.90;;;;;;5128390;27;20062;-64
2023/06/22 00:47:59;;;;;;;31.67;14.43;;;18.60;99.90;;;;;;5113566;27;20070;-64
2023/06/22 00:50:35;;;;;;;32.17;15.05;;;18.60;99.90;;;;;;5113352;27;20127;-64
2023/06/22 00:53:08;;;;;;;33.78;14.05;;;18.50;99.90;;;;;;5109096;27;20047;-64
2023/06/22 00:55:38;;;;;;;32.53;14.93;;;18.50;99.90;;;;;;5114820;28;20043;-64
2023/06/22 00:58:10;;;;;;;26.00;14.80;;;18.40;99.90;;;;;;5130116;27;20058;-64
2023/06/22 01:00:38;;;;;;;31.95;15.52;;;18.50;99.90;;;;;;5109640;28;20555;-64
2023/06/22 01:03:08;;;;;;;27.45;14.38;;;18.40;99.90;;;;;;5106404;28;20067;-63
2023/06/22 01:05:37;;;;;;;25.88;13.45;;;18.50;99.90;;;;;;5112547;28;20099;-64
2023/06/22 01:08:12;;;;;;;33.72;15.77;;;18.50;99.90;;;;;;5132152;27;20065;-64
2023/06/22 01:10:42;;;;;;;27.88;14.23;;;18.50;99.90;;;;;;5109834;28;20498;-64
2023/06/22 01:13:44;;;;;;;28.65;15.15;;;18.50;99.90;;;;;;5111614;27;20035;-64
2023/06/22 01:16:21;;;;;;;25.55;14.07;;;18.50;99.90;;;;;;5125228;28;20039;-64
2023/06/22 01:18:52;;;;;;;28.80;14.23;;;18.50;99.90;;;;;;5113482;28;20501;-64
2023/06/22 01:21:21;;;;;;;23.20;14.35;;;18.50;99.90;;;;;;5128484;28;20787;-64
2023/06/22 01:24:26;;;;;;;26.42;13.32;;;18.50;99.90;;;;;;5127185;28;20043;-63
2023/06/22 01:27:09;;;;;;;27.38;13.98;;;18.40;99.90;;;;;;5128509;28;20051;-64
2023/06/22 01:29:38;;;;;;;23.67;13.80;;;18.40;99.90;;;;;;5112818;28;20061;-64
2023/06/22 01:32:06;;;;;;;29.98;14.65;;;18.30;99.90;;;;;;5112206;27;20057;-64
2023/06/22 01:34:37;;;;;;;31.98;15.23;;;18.20;99.90;;;;;;5112187;27;20084;-64
2023/06/22 01:37:05;;;;;;;28.88;16.02;;;18.30;99.90;;;;;;5117434;27;20511;-64
2023/06/22 01:39:32;;;;;;;33.47;15.48;;;18.20;99.90;;;;;;5135653;27;20410;-64
2023/06/22 01:41:59;;;;;;;;;;;18.20;99.90;;;;;;5117290;27;20482;-64
2023/06/22 01:44:27;;;;;;;31.80;16.38;;;18.30;99.90;;;;;;5113744;27;20354;-64
2023/06/22 01:46:55;;;;;;;33.33;15.50;;;18.20;99.90;;;;;;5135001;27;20047;-64
2023/06/22 01:49:22;;;;;;;33.92;16.77;;;18.20;99.90;;;;;;5116703;27;20065;-64
2023/06/22 01:51:48;;;;;;;29.45;15.48;;;18.20;99.90;;;;;;5109029;27;20039;-64
2023/06/22 01:54:15;;;;;;;31.60;16.63;;;18.20;99.90;;;;;;5117072;27;20046;-64
2023/06/22 01:56:42;;;;;;;27.95;16.55;;;18.20;99.90;;;;;;5134791;27;20039;-64
2023/06/22 01:59:25;;;;;;;28.30;16.48;;;18.20;99.90;;;;;;5117097;27;20062;-64
2023/06/22 02:02:01;;;;;;;27.35;16.10;;;18.20;99.90;;;;;;5114366;27;20039;-64
2023/06/22 02:04:37;;;;;;;34.67;17.70;;;18.20;99.90;;;;;;5131286;27;20043;-64
2023/06/22 02:07:08;;;;;;;30.30;16.00;;;18.10;99.90;;;;;;5109052;27;20070;-64
2023/06/22 02:09:38;;;;;;;32.17;17.52;;;18.20;99.90;;;;;;5116408;27;20043;-64
2023/06/22 02:12:07;;;;;;;32.45;17.75;;;18.00;99.90;;;;;;5127011;27;20384;-64
2023/06/22 02:14:35;;;;;;;36.33;18.30;;;18.00;99.90;;;;;;5132695;27;20039;-64
2023/06/22 02:17:07;;;;;;;36.88;16.38;;;18.00;99.90;;;;;;5127289;27;20040;-64
2023/06/22 02:19:38;;;;;;;29.17;18.83;;;18.00;99.90;;;;;;5134937;27;20558;-64
2023/06/22 02:22:05;;;;;;;33.35;17.10;;;18.00;99.90;;;;;;5124921;27;20039;-64
2023/06/22 02:24:33;;;;;;;37.15;17.10;;;18.00;99.90;;;;;;5111166;27;20058;-64
2023/06/22 02:27:00;;;;;;;35.08;17.65;;;17.90;99.90;;;;;;5116000;27;20070;-63
2023/06/22 02:29:28;;;;;;;34.33;17.02;;;17.90;99.90;;;;;;5116059;27;20043;-64
2023/06/22 02:31:55;;;;;;;42.88;17.60;;;17.90;99.90;;;;;;5125605;27;20492;-64
2023/06/22 02:34:22;;;;;;;33.35;17.17;;;17.90;99.90;;;;;;5114875;27;20047;-64
2023/06/22 02:36:50;;;;;;;27.17;15.00;;;18.00;99.90;;;;;;5132892;27;20035;-64
2023/06/22 02:39:25;;;;;;;38.03;15.80;;;17.90;99.90;;;;;;5115719;27;20074;-64
2023/06/22 02:41:53;;;;;;;27.15;14.00;;;17.90;99.90;;;;;;5127811;27;20039;-64
2023/06/22 02:44:22;;;;;;;30.83;15.50;;;17.90;99.90;;;;;;5128693;27;20039;-64
2023/06/22 02:46:49;;;;;;;34.75;16.70;;;17.90;99.90;;;;;;5132674;27;20289;-64
2023/06/22 02:49:16;;;;;;;27.27;16.38;;;17.90;99.90;;;;;;5115959;27;20491;-64
2023/06/22 02:51:47;;;;;;;35.45;16.10;;;17.90;99.90;;;;;;5113123;27;20043;-64
2023/06/22 02:54:16;;;;;;;31.38;15.93;;;17.90;99.90;;;;;;5115920;27;20046;-64
2023/06/22 02:56:45;;;;;;;33.88;15.20;;;17.90;99.90;;;;;;5115621;27;20039;-64
2023/06/22 02:59:12;;;;;;;28.52;15.98;;;17.90;99.90;;;;;;5114426;27;20039;-64
2023/06/22 03:01:42;;;;;;;23.33;14.18;;;17.80;99.90;;;;;;5110857;27;20039;-64
2023/06/22 03:04:18;;;;;;;36.83;15.77;;;17.80;99.90;;;;;;5115988;27;20043;-63
2023/06/22 03:06:50;;;;;;;27.95;15.20;;;17.70;99.90;;;;;;5113790;27;20039;-64
2023/06/22 03:09:18;;;;;;;26.02;14.63;;;17.70;99.90;;;;;;5115287;27;20050;-64
2023/06/22 03:11:45;;;;;;;32.65;15.88;;;17.80;99.90;;;;;;5132569;27;20095;-64
2023/06/22 03:14:12;;;;;;;26.35;15.00;;;17.80;99.90;;;;;;5110754;28;20496;-63
2023/06/22 03:16:40;;;;;;;25.70;14.52;;;17.80;99.90;;;;;;5111853;27;20050;-64
2023/06/22 03:19:07;;;;;;;30.35;15.23;;;17.70;99.90;;;;;;5115044;27;20444;-64
2023/06/22 03:21:34;;;;;;;25.63;13.70;;;17.70;99.90;;;;;;5114879;27;20046;-63
2023/06/22 03:24:01;;;;;;;23.15;13.52;;;17.80;99.90;;;;;;5126723;27;20039;-64
2023/06/22 03:26:28;;;;;;;27.42;13.75;;;17.80;99.90;;;;;;5125997;27;20047;-64
2023/06/22 03:28:56;;;;;;;25.27;13.63;;;17.80;99.90;;;;;;5113939;27;20096;-63
2023/06/22 03:31:23;;;;;;;28.35;13.88;;;17.80;99.90;;;;;;5109824;28;20055;-64
2023/06/22 03:33:50;;;;;;;27.85;13.32;;;17.80;99.90;;;;;;5131255;27;20045;-64
2023/06/22 03:36:20;;;;;;;26.77;13.25;;;17.80;99.90;;;;;;5114031;27;20035;-63
2023/06/22 03:38:49;;;;;;;22.88;12.82;;;17.80;99.90;;;;;;5115072;27;20511;-64
2023/06/22 03:41:16;;;;;;;25.95;13.60;;;17.90;99.90;;;;;;5111949;27;20036;-64
2023/06/22 03:43:43;;;;;;;28.02;14.05;;;17.90;99.90;;;;;;5133198;27;20060;-64
2023/06/22 03:46:10;;;;;;;27.20;14.52;;;17.90;99.90;;;;;;5114588;27;20567;-64
2023/06/22 03:48:38;;;;;;;32.80;14.82;;;18.00;99.90;;;;;;5110164;28;20514;-64
2023/06/22 03:51:06;;;;;;;30.98;13.82;;;18.00;99.90;;;;;;5114217;27;20050;-64
2023/06/22 03:53:33;;;;;;;26.83;14.57;;;18.00;99.90;;;;;;5132287;27;20031;-64
2023/06/22 03:55:59;;;;;;;31.48;14.85;;;18.00;99.90;;;;;;5132580;27;20057;-64
2023/06/22 03:58:26;;;;;;;36.65;16.27;;;18.00;99.90;;;;;;5129631;27;20035;-64
2023/06/22 04:00:53;;;;;;;32.83;15.63;;;18.10;99.90;;;;;;5123639;27;20043;-64
2023/06/22 04:03:20;;;;;;;27.00;15.90;;;18.10;99.90;;;;;;5133017;27;20046;-64
2023/06/22 04:05:48;;;;;;;;;;;18.10;99.90;;;;;;5124108;27;20514;-64
2023/06/22 04:08:15;;;;;;;32.72;15.43;;;18.20;99.90;;;;;;5132654;27;19965;-64
2023/06/22 04:10:42;;;;;;;31.20;17.00;;;18.20;99.90;;;;;;5130640;27;20039;-64
2023/06/22 04:13:09;;;;;;;30.52;15.95;;;18.30;99.90;;;;;;5132254;27;20063;-63
2023/06/22 04:15:36;;;;;;;26.58;14.93;;;18.30;99.90;;;;;;5130392;27;20066;-64
2023/06/22 04:18:03;;;;;;;24.95;14.10;;;18.40;99.90;;;;;;5131912;27;20035;-64
2023/06/22 04:20:31;;;;;;;25.45;14.25;;;18.50;99.90;;;;;;5132210;27;20043;-64
2023/06/22 04:22:59;;;;;;;27.15;13.40;;;18.50;99.90;;;;;;5131939;27;20047;-64
2023/06/22 04:25:26;;;;;;;31.20;14.50;;;18.60;99.90;;;;;;5129135;27;20039;-64
2023/06/22 04:27:52;;;;;;;32.67;16.35;;;18.60;99.90;;;;;;5132136;27;20043;-64
2023/06/22 04:30:19;;;;;;;32.22;14.80;;;18.70;99.90;;;;;;5131369;27;20057;-63
2023/06/22 04:32:55;;;;;;;31.50;16.25;;;18.70;99.90;;;;;;5131825;27;20467;-64
2023/06/22 04:35:23;;;;;;;29.50;16.15;;;18.80;99.90;;;;;;5131706;27;20035;-64
2023/06/22 04:37:54;;;;;;;28.85;18.15;;;18.80;99.90;;;;;;5123313;27;20046;-64
2023/06/22 04:40:23;;;;;;;30.00;17.58;;;18.80;99.90;;;;;;5131443;27;20034;-64
2023/06/22 04:42:53;;;;;;;30.80;16.13;;;18.90;99.90;;;;;;5124629;27;20050;-64
2023/06/22 04:45:21;;;;;;;28.50;16.38;;;18.90;99.90;;;;;;5119205;27;20039;-64
2023/06/22 04:47:48;;;;;;;31.70;16.60;;;19.00;99.90;;;;;;5125438;27;20035;-65
2023/06/22 04:50:15;;;;;;;28.95;16.08;;;19.10;99.90;;;;;;5131895;27;20043;-65
2023/06/22 04:52:42;;;;;;;27.00;15.80;;;19.10;99.90;;;;;;5131476;27;20231;-64
2023/06/22 04:55:09;;;;;;;26.55;15.18;;;19.00;99.90;;;;;;5112110;28;20043;-64
2023/06/22 04:57:39;;;;;;;27.42;15.05;;;19.00;99.90;;;;;;5126916;27;20043;-64
2023/06/22 05:00:12;;;;;;;29.98;14.93;;;19.00;99.90;;;;;;5128946;27;20085;-64
2023/06/22 05:02:39;;;;;;;25.50;14.40;;;19.10;99.90;;;;;;5127099;27;20050;-64
2023/06/22 05:05:07;;;;;;;;;;;19.30;99.90;;;;;;5130352;28;20470;-64
2023/06/22 05:07:34;;;;;;;26.13;14.52;;;19.30;99.90;;;;;;5111110;27;19927;-64
2023/06/22 05:10:02;;;;;;;27.33;13.75;;;19.40;99.90;;;;;;5129065;27;20466;-65
2023/06/22 05:12:30;;;;;;;32.28;14.00;;;19.40;99.90;;;;;;5123893;28;20053;-64
2023/06/22 05:14:57;;;;;;;26.08;13.07;;;19.50;99.90;;;;;;5121774;27;20114;-64
2023/06/22 05:17:24;;;;;;;25.10;12.85;;;19.60;99.90;;;;;;5131269;28;20096;-64
2023/06/22 05:19:51;;;;;;;26.48;13.13;;;19.70;99.90;;;;;;5130715;27;20452;-64
2023/06/22 05:22:18;;;;;;;26.58;12.80;;;19.80;99.90;;;;;;5118654;28;20040;-64
2023/06/22 05:24:46;;;;;;;28.75;13.10;;;19.80;99.90;;;;;;5122576;27;20451;-65
2023/06/22 05:27:13;;;;;;;;;;;19.90;99.90;;;;;;5120513;27;20122;-64
2023/06/22 05:29:40;;;;;;;29.52;14.00;;;20.00;99.90;;;;;;5119499;28;19927;-63
2023/06/22 05:32:07;;;;;;;24.20;13.10;;;20.10;99.90;;;;;;5132899;27;20051;-63
2023/06/22 05:34:34;;;;;;;22.42;12.85;;;20.20;99.90;;;;;;5140115;27;20497;-63
2023/06/22 05:37:01;;;;;;;25.83;12.30;;;20.30;99.90;;;;;;5140825;27;20513;-63
2023/06/22 05:39:28;;;;;;;25.38;13.13;;;20.20;99.90;;;;;;5108921;28;20044;-63
2023/06/22 05:41:55;;;;;;;28.00;13.65;;;20.10;99.90;;;;;;5128534;27;20047;-63
2023/06/22 05:44:21;;;;;;;27.95;12.90;;;20.10;99.90;;;;;;5130675;28;20035;-63
2023/06/22 05:46:48;;;;;;;28.02;13.50;;;20.10;99.90;;;;;;5130462;28;20047;-63
2023/06/22 05:49:16;;;;;;;24.42;12.98;;;20.20;99.90;;;;;;5127321;28;20051;-63
2023/06/22 05:51:43;;;;;;;27.50;13.57;;;20.20;99.90;;;;;;5120833;27;20043;-63
2023/06/22 05:54:09;;;;;;;24.92;12.70;;;20.60;99.90;;;;;;5130728;28;20039;-63
2023/06/22 05:56:36;;;;;;;25.73;13.93;;;20.20;99.90;;;;;;5129716;28;20391;-64
2023/06/22 05:59:04;;;;;;;21.77;12.77;;;20.10;99.90;;;;;;5131304;28;20396;-63
2023/06/22 06:01:35;;;;;;;29.20;13.95;;;20.00;99.90;;;;;;5130865;27;20058;-63
2023/06/22 06:04:08;;;;;;;30.90;12.38;;;19.90;99.90;;;;;;5131316;28;20043;-63
2023/06/22 06:06:36;;;;;;;25.88;12.80;;;19.80;99.90;;;;;;5126251;28;20514;-63
2023/06/22 06:09:04;;;;;;;27.27;13.23;;;19.90;99.90;;;;;;5130923;27;20497;-63
2023/06/22 06:11:31;;;;;;;26.75;12.70;;;19.90;99.90;;;;;;5130939;28;20476;-63
2023/06/22 06:13:58;;;;;;;27.17;13.07;;;19.90;99.90;;;;;;5122658;28;20043;-63
2023/06/22 06:16:25;;;;;;;25.92;12.18;;;20.00;99.90;;;;;;5131525;28;20036;-63
2023/06/22 06:18:53;;;;;;;26.17;12.40;;;20.10;99.90;;;;;;5130824;28;20035;-63
2023/06/22 06:21:20;;;;;;;25.85;12.15;;;20.20;99.90;;;;;;5132988;27;20035;-63
2023/06/22 06:23:47;;;;;;;26.60;12.73;;;20.20;99.90;;;;;;5124374;27;20043;-63
2023/06/22 06:26:16;;;;;;;;;;;20.30;99.90;;;;;;5134870;27;20028;-63
2023/06/22 06:28:43;;;;;;;22.33;12.05;;;20.50;99.90;;;;;;5134572;27;19923;-63
2023/06/22 06:31:12;;;;;;;23.77;12.52;;;20.50;99.90;;;;;;5130285;27;20039;-63
2023/06/22 06:33:39;;;;;;;24.20;12.85;;;20.80;99.90;;;;;;5128595;27;20032;-63
2023/06/22 06:36:08;;;;;;;33.45;11.75;;;20.90;99.90;;;;;;5115885;27;20053;-63
2023/06/22 06:38:35;;;;;;;23.83;11.38;;;20.90;99.90;;;;;;5134207;27;20035;-63
2023/06/22 06:41:01;;;;;;;25.75;10.98;;;21.10;99.90;;;;;;5134186;27;20046;-63
2023/06/22 06:43:28;;;;;;;23.77;11.18;;;21.20;99.90;;;;;;5128267;27;20031;-63
2023/06/22 06:45:55;;;;;;;24.27;11.02;;;21.30;99.90;;;;;;5134375;27;20039;-63
2023/06/22 06:48:22;;;;;;;25.02;11.23;;;21.50;99.90;;;;;;5123551;27;20563;-63
2023/06/22 06:50:49;;;;;;;20.20;10.90;;;21.70;99.90;;;;;;5133863;27;20039;-63
2023/06/22 06:53:16;;;;;;;21.10;10.65;;;21.70;99.90;;;;;;5124877;27;20039;-63
2023/06/22 06:55:45;;;;;;;33.72;12.00;;;21.90;99.90;;;;;;5125970;27;20031;-63
2023/06/22 06:58:13;;;;;;;23.70;11.40;;;22.00;99.90;;;;;;5133606;27;20091;-63
2023/06/22 07:00:39;;;;;;;18.67;10.15;;;22.00;99.90;;;;;;5132572;27;20082;-63
2023/06/22 07:03:07;;;;;;;20.55;10.70;;;22.30;99.90;;;;;;5133617;27;20053;-63
2023/06/22 07:05:33;;;;;;;20.80;10.77;;;22.40;99.90;;;;;;5133092;27;20051;-63
2023/06/22 07:08:01;;;;;;;25.67;11.70;;;22.50;99.90;;;;;;5134050;27;20049;-63
2023/06/22 07:10:28;;;;;;;25.98;11.00;;;22.50;99.90;;;;;;5132006;27;20041;-62
2023/06/22 07:12:57;;;;;;;24.27;10.40;;;22.60;99.90;;;;;;5124874;27;20051;-64
2023/06/22 07:15:24;;;;;;;26.38;10.27;;;22.70;99.90;;;;;;5133815;27;20039;-63
2023/06/22 07:17:50;;;;;;;24.42;10.68;;;22.90;99.90;;;;;;5133997;27;20031;-63
2023/06/22 07:20:19;;;;;;;27.95;11.00;;;23.00;99.90;;;;;;5129775;27;20045;-63
2023/06/22 07:22:46;;;;;;;23.77;11.13;;;23.10;99.90;;;;;;5128820;27;20031;-63
2023/06/22 07:25:16;;;;;;;22.88;10.43;;;23.00;99.90;;;;;;5132752;27;20043;-63
2023/06/22 07:28:01;;;;;;;22.15;10.52;;;23.00;99.90;;;;;;5133822;27;20054;-63
2023/06/22 07:30:29;;;;;;;24.50;11.45;;;23.20;99.90;;;;;;5126351;27;20487;-63
2023/06/22 07:32:58;;;;;;;23.83;10.55;;;23.30;99.90;;;;;;5132367;27;20043;-64
2023/06/22 07:35:25;;;;;;;23.92;11.13;;;23.50;99.90;;;;;;5125625;27;20035;-63
2023/06/22 07:37:51;;;;;;;23.05;11.23;;;23.60;99.90;;;;;;5132853;27;20043;-63
2023/06/22 07:40:18;;;;;;;24.85;11.07;;;23.60;99.90;;;;;;5123821;27;20043;-63
2023/06/22 07:42:47;;;;;;;24.60;11.05;;;23.60;99.90;;;;;;5132456;27;20361;-64
2023/06/22 07:45:14;;;;;;;21.52;10.35;;;23.70;99.90;;;;;;5113966;27;20146;-63
2023/06/22 07:47:41;;;;;;;23.30;10.77;;;23.80;99.90;;;;;;5127390;27;20046;-63
2023/06/22 07:50:08;;;;;;;24.17;10.85;;;24.20;99.90;;;;;;5131605;27;20047;-63
2023/06/22 07:52:35;;;;;;;20.98;10.60;;;24.30;99.90;;;;;;5132118;27;20049;-64
2023/06/22 07:55:02;;;;;;;23.67;10.90;;;24.50;99.90;;;;;;5132710;27;20043;-63
2023/06/22 07:57:33;;;;;;;;;;;24.70;99.90;;;;;;5129681;27;20053;-64
2023/06/22 08:00:04;;;;;;;21.45;10.60;;;25.00;99.90;;;;;;5130425;27;20348;-62
2023/06/22 08:02:38;;;;;;;30.58;11.32;;;25.20;99.90;;;;;;5125835;27;20403;-64
2023/06/22 08:05:07;;;;;;;21.50;10.25;;;25.40;99.90;;;;;;5132044;27;20043;-64
2023/06/22 08:07:54;;;;;;;23.63;10.75;;;25.40;99.90;;;;;;5131850;27;20038;-64
2023/06/22 08:10:21;;;;;;;25.50;10.10;;;25.50;99.90;;;;;;5124343;27;20039;-63
2023/06/22 08:12:48;;;;;;;29.50;11.50;;;25.60;99.90;;;;;;5126257;27;20043;-64
2023/06/22 08:15:15;;;;;;;20.88;10.93;;;25.70;99.90;;;;;;5131576;27;20035;-64
2023/06/22 08:17:42;;;;;;;24.15;10.57;;;25.90;99.90;;;;;;5128264;27;20052;-63
2023/06/22 08:20:11;;;;;;;25.55;11.23;;;26.10;99.90;;;;;;5130434;27;20495;-64
2023/06/22 08:22:38;;;;;;;25.23;11.02;;;26.20;99.90;;;;;;5131245;27;20114;-64
2023/06/22 08:25:06;;;;;;;24.50;10.75;;;26.30;99.90;;;;;;5113978;27;20415;-63
2023/06/22 08:27:33;;;;;;;27.45;10.98;;;26.30;99.90;;;;;;5128699;27;20043;-64
2023/06/22 08:30:00;;;;;;;28.70;11.00;;;26.40;99.90;;;;;;5129172;27;20035;-64
2023/06/22 08:32:28;;;;;;;21.38;10.55;;;26.40;99.90;;;;;;5131841;27;20032;-63
2023/06/22 08:34:56;;;;;;;21.35;10.50;;;26.30;99.90;;;;;;5132685;27;20039;-64
2023/06/22 08:37:30;;;;;;;22.95;10.05;;;26.40;99.90;;;;;;5116136;27;20045;-64
2023/06/22 08:39:59;;;;;;;21.15;10.43;;;26.60;99.90;;;;;;5126177;27;20069;-64
2023/06/22 08:42:26;;;;;;;23.08;11.13;;;26.80;99.90;;;;;;5120466;27;20062;-64
2023/06/22 08:44:53;;;;;;;23.60;10.50;;;27.00;99.90;;;;;;5121669;27;20047;-63
2023/06/22 08:47:21;;;;;;;21.58;9.43;;;27.10;99.90;;;;;;5131382;27;20043;-64
2023/06/22 08:49:48;;;;;;;28.55;9.85;;;27.00;99.90;;;;;;5132306;27;20043;-63
2023/06/22 08:52:15;;;;;;;21.90;9.57;;;27.20;99.90;;;;;;5131541;27;20043;-63
2023/06/22 08:54:42;;;;;;;;;;;27.60;99.90;;;;;;5114383;27;20555;-64
2023/06/22 08:57:08;;;;;;;19.77;9.55;;;27.90;99.90;;;;;;5121304;27;20264;-63
2023/06/22 08:59:35;;;;;;;19.17;9.65;;;27.90;99.90;;;;;;5131957;27;20487;-64
2023/06/22 09:02:02;;;;;;;27.63;10.25;;;27.90;99.90;;;;;;5127081;27;20051;-64
2023/06/22 09:04:29;;;;;;;23.77;10.50;;;28.30;99.90;;;;;;5132047;27;20040;-64
2023/06/22 09:06:56;;;;;;;20.15;9.90;;;28.20;99.90;;;;;;5131650;28;20035;-64
2023/06/22 09:09:23;;;;;;;21.33;10.05;;;28.40;99.90;;;;;;5125979;28;20035;-64
2023/06/22 09:11:49;;;;;;;;;;;28.60;99.90;;;;;;5126017;27;20114;-64
2023/06/22 09:14:16;;;;;;;23.23;10.57;;;28.80;99.90;;;;;;5130966;28;20367;-64
2023/06/22 09:16:43;;;;;;;;;;;28.60;99.90;;;;;;5131657;28;20031;-64
2023/06/22 09:19:10;;;;;;;24.23;11.05;;;28.40;99.90;;;;;;5130307;28;20488;-63
2023/06/22 09:21:37;;;;;;;23.65;9.90;;;28.30;99.90;;;;;;5131462;27;20035;-64
2023/06/22 09:24:04;;;;;;;26.50;9.95;;;28.60;99.90;;;;;;5129940;28;20491;-64
2023/06/22 09:26:31;;;;;;;25.80;10.50;;;28.80;99.90;;;;;;5131782;28;20039;-64
2023/06/22 09:28:57;;;;;;;;;;;28.80;99.90;;;;;;5131899;27;20447;-64
2023/06/22 09:31:27;;;;;;;22.73;10.00;;;28.60;99.90;;;;;;5125344;28;19962;-64
2023/06/22 09:33:54;;;;;;;25.38;10.48;;;28.90;99.90;;;;;;5131912;27;20073;-64
2023/06/22 09:36:21;;;;;;;23.02;10.30;;;29.10;99.90;;;;;;5131167;27;20039;-64
2023/06/22 09:38:54;;;;;;;28.98;10.30;;;29.20;99.90;;;;;;5132209;28;20039;-64
2023/06/22 09:41:22;;;;;;;27.85;10.05;;;29.20;99.90;;;;;;5128835;27;20074;-64
2023/06/22 09:43:49;;;;;;;27.27;10.93;;;29.50;99.90;;;;;;5131685;27;20031;-64
2023/06/22 09:46:16;;;;;;;25.30;11.55;;;29.80;99.90;;;;;;5130957;28;20043;-64
2023/06/22 09:48:43;;;;;;;28.50;10.27;;;29.90;99.90;;;;;;5130087;28;20061;-64
2023/06/22 09:51:11;;;;;;;25.48;10.68;;;29.90;99.90;;;;;;5130733;28;20047;-64
2023/06/22 09:53:38;;;;;;;21.50;10.15;;;30.00;99.90;;;;;;5130918;27;20035;-64
2023/06/22 09:56:06;;;;;;;;;;;30.00;99.90;;;;;;5126463;27;20039;-64
2023/06/22 09:58:33;;;;;;;22.02;10.63;;;30.10;99.90;;;;;;5135545;27;20018;-64
2023/06/22 10:00:59;;;;;;;28.00;11.05;;;30.30;99.70;;;;;;5134517;27;20040;-64
2023/06/22 10:03:26;;;;;;;;;;;30.30;98.80;;;;;;5135737;27;20043;-64
2023/06/22 10:05:53;;;;;;;20.05;10.60;;;30.10;99.40;;;;;;5125660;27;19920;-64
2023/06/22 10:08:20;;;;;;;;;;;30.00;98.90;;;;;;5134474;27;20043;-64
2023/06/22 10:10:47;;;;;;;24.67;9.70;;;29.70;98.10;;;;;;5134295;27;19923;-64
2023/06/22 10:13:14;;;;;;;;;;;29.50;98.80;;;;;;5135640;27;20047;-64
2023/06/22 10:15:42;;;;;;;25.48;10.25;;;29.40;98.50;;;;;;5127481;27;19926;-64
2023/06/22 10:18:09;;;;;;;25.60;9.63;;;29.50;98.70;;;;;;5134965;27;20039;-64
2023/06/22 10:20:36;;;;;;;27.10;10.30;;;29.70;98.60;;;;;;5134536;27;20376;-64
2023/06/22 10:23:03;;;;;;;23.83;10.75;;;29.90;98.40;;;;;;5126809;27;20040;-64
2023/06/22 10:25:30;;;;;;;;;;;30.10;98.10;;;;;;5135626;27;20039;-64
2023/06/22 10:27:57;;;;;;;25.10;10.57;;;30.00;98.30;;;;;;5131631;27;19919;-64
2023/06/22 10:30:24;;;;;;;;;;;30.00;98.50;;;;;;5134350;27;20054;-64
2023/06/22 10:32:50;;;;;;;30.02;11.32;;;29.80;99.20;;;;;;5133618;27;20010;-64
2023/06/22 10:35:17;;;;;;;24.90;11.23;;;30.00;99.50;;;;;;5134456;27;20262;-64
2023/06/22 10:37:45;;;;;;;18.48;10.15;;;30.10;98.50;;;;;;5131201;27;20503;-64
2023/06/22 10:40:13;;;;;;;25.75;10.88;;;30.40;97.80;;;;;;5134404;27;20039;-64
2023/06/22 10:42:41;;;;;;;25.55;10.73;;;30.50;97.40;;;;;;5133342;27;20035;-64
2023/06/22 10:45:09;;;;;;;25.33;10.40;;;30.80;98.00;;;;;;5126438;27;20046;-64
2023/06/22 10:47:36;;;;;;;26.52;11.60;;;30.90;97.10;;;;;;5131421;27;20043;-64
2023/06/22 10:50:03;;;;;;;24.42;10.95;;;31.00;97.00;;;;;;5134569;27;20126;-64
2023/06/22 10:52:30;;;;;;;17.95;10.00;;;31.00;97.30;;;;;;5133766;27;20499;-64
2023/06/22 10:54:57;;;;;;;;;;;31.00;97.50;;;;;;5131953;27;20058;-64
2023/06/22 10:57:24;;;;;;;21.90;10.13;;;30.90;96.10;;;;;;5133330;27;20372;-64
2023/06/22 10:59:51;;;;;;;28.23;9.30;;;30.90;96.30;;;;;;5133550;27;20046;-64
2023/06/22 11:02:17;;;;;;;18.20;9.30;;;31.20;95.40;;;;;;5133585;27;20039;-64
2023/06/22 11:04:45;;;;;;;24.52;10.30;;;31.40;95.20;;;;;;5130672;27;20039;-64
2023/06/22 11:07:13;;;;;;;21.52;10.27;;;31.90;95.30;;;;;;5130904;27;20047;-64
2023/06/22 11:09:40;;;;;;;26.50;11.32;;;32.20;94.90;;;;;;5133864;27;20050;-64
2023/06/22 11:12:07;;;;;;;30.33;10.45;;;32.20;95.40;;;;;;5133456;27;20395;-64
2023/06/22 11:14:34;;;;;;;24.30;10.20;;;31.90;95.20;;;;;;5132450;27;20454;-64
2023/06/22 11:17:00;;;;;;;25.73;10.65;;;31.80;94.90;;;;;;5133849;27;20039;-64
2023/06/22 11:19:27;;;;;;;24.75;10.20;;;31.90;94.70;;;;;;5133412;27;20047;-64
2023/06/22 11:21:54;;;;;;;25.55;9.73;;;31.70;94.50;;;;;;5133414;27;20039;-64
2023/06/22 11:24:21;;;;;;;22.45;9.50;;;31.90;94.30;;;;;;5129770;27;20035;-64
2023/06/22 11:26:48;;;;;;;21.33;9.02;;;32.10;93.20;;;;;;5133659;27;20035;-64
2023/06/22 11:29:15;;;;;;;20.02;8.90;;;32.20;93.20;;;;;;5133315;27;20100;-64
2023/06/22 11:31:58;;;;;;;21.83;8.73;;;32.40;93.70;;;;;;5128473;27;20507;-64
2023/06/22 11:34:24;;;;;;;26.15;8.70;;;32.90;92.10;;;;;;5133564;27;20047;-64
2023/06/22 11:36:51;;;;;;;29.23;9.75;;;33.30;91.30;;;;;;5131240;27;20388;-64
2023/06/22 11:39:18;;;;;;;25.90;9.55;;;33.30;91.60;;;;;;5133353;27;20050;-64
2023/06/22 11:41:55;;;;;;;24.85;8.88;;;33.10;91.20;;;;;;5132091;27;20035;-64
2023/06/22 11:44:22;;;;;;;18.38;8.18;;;32.90;90.90;;;;;;5129562;27;20043;-64
2023/06/22 11:46:49;;;;;;;19.77;8.85;;;32.70;90.30;;;;;;5130258;27;20045;-64
2023/06/22 11:49:16;;;;;;;23.77;8.13;;;32.50;90.80;;;;;;5133139;27;20188;-64
2023/06/22 11:51:42;;;;;;;25.60;8.52;;;32.20;89.50;;;;;;5132542;27;20041;-64
2023/06/22 11:54:09;;;;;;;26.88;8.93;;;32.00;90.40;;;;;;5131629;27;20042;-64
2023/06/22 11:56:36;;;;;;;28.67;9.15;;;31.80;88.60;;;;;;5132951;27;20838;-64
2023/06/22 11:59:03;;;;;;;20.95;8.10;;;31.80;90.30;;;;;;5132756;27;20043;-63
2023/06/22 12:01:29;;;;;;;22.02;8.55;;;31.90;89.00;;;;;;5132298;27;20043;-64
2023/06/22 12:03:56;;;;;;;22.58;8.77;;;32.00;89.10;;;;;;5126151;27;20403;-64
2023/06/22 12:06:23;;;;;;;22.85;8.18;;;32.40;90.50;;;;;;5131114;27;20403;-65
2023/06/22 12:08:50;;;;;;;21.25;8.77;;;32.70;90.40;;;;;;5132483;27;20086;-64
2023/06/22 12:11:17;;;;;;;24.90;9.38;;;32.50;90.20;;;;;;5131997;27;20046;-64
2023/06/22 12:13:44;;;;;;;22.73;8.40;;;32.00;89.90;;;;;;5129048;27;20076;-64
2023/06/22 12:16:12;;;;;;;22.83;8.32;;;32.10;90.80;;;;;;5129066;27;20046;-64
2023/06/22 12:18:38;;;;;;;27.83;8.75;;;32.80;90.40;;;;;;5131762;27;20031;-64
2023/06/22 12:21:05;;;;;;;36.10;7.63;;;33.50;89.40;;;;;;5132253;27;20039;-64
2023/06/22 12:23:32;;;;;;;21.65;8.13;;;33.90;83.10;;;;;;5126365;27;20372;-65
2023/06/22 12:25:59;;;;;;;26.20;8.20;;;34.20;83.40;;;;;;5132538;27;20043;-64
2023/06/22 12:28:26;;;;;;;19.63;8.80;;;33.80;84.50;;;;;;5131673;27;20051;-64
2023/06/22 12:30:53;;;;;;;21.23;9.07;;;33.40;86.50;;;;;;5129214;27;20035;-64
2023/06/22 12:33:20;;;;;;;23.55;9.05;;;33.20;88.50;;;;;;5125324;27;20043;-64
2023/06/22 12:35:48;;;;;;;25.42;9.32;;;32.80;86.70;;;;;;5132458;27;20043;-64
2023/06/22 12:38:15;;;;;;;22.75;8.23;;;32.60;86.50;;;;;;5131562;27;20050;-64